sensor_id;sensor_type;location;lat;lon;timestamp;P1;durP1;ratioP1;P2;durP2;ratioP2
85763;SDS011;76207;39.772;2.706;2024-03-17T00:02:21;5.20;;;2.90;;
85763;SDS011;76207;39.772;2.706;2024-03-17T00:04:46;4.70;;;2.80;;
85763;SDS011;76207;39.772;2.706;2024-03-17T00:07:12;4.10;;;2.70;;
85763;SDS011;76207;39.772;2.706;2024-03-17T00:09:38;3.40;;;2.90;;
85763;SDS011;76207;39.772;2.706;2024-03-17T00:12:04;3.80;;;2.60;;
85763;SDS011;76207;39.772;2.706;2024-03-17T00:14:30;4.60;;;3.20;;
85763;SDS011;76207;39.772;2.706;2024-03-17T00:16:56;3.60;;;2.70;;
85763;SDS011;76207;39.772;2.706;2024-03-17T00:19:25;6.10;;;3.20;;
85763;SDS011;76207;39.772;2.706;2024-03-17T00:21:51;5.00;;;2.90;;
85763;SDS011;76207;39.772;2.706;2024-03-17T00:24:16;6.40;;;4.40;;
85763;SDS011;76207;39.772;2.706;2024-03-17T00:26:42;7.20;;;4.80;;
85763;SDS011;76207;39.772;2.706;2024-03-17T00:29:08;5.90;;;4.10;;
85763;SDS011;76207;39.772;2.706;2024-03-17T00:31:33;5.50;;;3.00;;
85763;SDS011;76207;39.772;2.706;2024-03-17T00:33:59;3.70;;;2.50;;
85763;SDS011;76207;39.772;2.706;2024-03-17T00:36:25;5.10;;;3.60;;
85763;SDS011;76207;39.772;2.706;2024-03-17T00:38:50;5.20;;;2.90;;
85763;SDS011;76207;39.772;2.706;2024-03-17T00:41:17;4.00;;;2.90;;
85763;SDS011;76207;39.772;2.706;2024-03-17T00:43:44;6.70;;;2.50;;
85763;SDS011;76207;39.772;2.706;2024-03-17T00:46:10;3.80;;;2.60;;
85763;SDS011;76207;39.772;2.706;2024-03-17T00:48:35;4.30;;;2.10;;
85763;SDS011;76207;39.772;2.706;2024-03-17T00:51:00;3.90;;;2.30;;
85763;SDS011;76207;39.772;2.706;2024-03-17T00:53:27;3.50;;;2.40;;
85763;SDS011;76207;39.772;2.706;2024-03-17T00:55:56;6.50;;;4.60;;
85763;SDS011;76207;39.772;2.706;2024-03-17T00:58:28;9.40;;;7.00;;
85763;SDS011;76207;39.772;2.706;2024-03-17T01:00:54;12.50;;;8.30;;
85763;SDS011;76207;39.772;2.706;2024-03-17T01:03:19;7.80;;;5.70;;
85763;SDS011;76207;39.772;2.706;2024-03-17T01:05:46;8.70;;;5.60;;
85763;SDS011;76207;39.772;2.706;2024-03-17T01:08:15;8.50;;;5.40;;
85763;SDS011;76207;39.772;2.706;2024-03-17T01:10:42;7.00;;;4.90;;
85763;SDS011;76207;39.772;2.706;2024-03-17T01:13:09;6.20;;;4.70;;
85763;SDS011;76207;39.772;2.706;2024-03-17T01:15:35;6.30;;;4.60;;
85763;SDS011;76207;39.772;2.706;2024-03-17T01:18:02;8.30;;;5.10;;
85763;SDS011;76207;39.772;2.706;2024-03-17T01:20:29;7.50;;;5.10;;
85763;SDS011;76207;39.772;2.706;2024-03-17T01:22:59;7.80;;;5.20;;
85763;SDS011;76207;39.772;2.706;2024-03-17T01:25:25;6.20;;;4.00;;
85763;SDS011;76207;39.772;2.706;2024-03-17T01:27:52;5.30;;;4.00;;
85763;SDS011;76207;39.772;2.706;2024-03-17T01:30:17;5.50;;;3.70;;
85763;SDS011;76207;39.772;2.706;2024-03-17T01:32:44;5.60;;;3.50;;
85763;SDS011;76207;39.772;2.706;2024-03-17T01:35:14;6.00;;;4.20;;
85763;SDS011;76207;39.772;2.706;2024-03-17T01:37:40;6.60;;;4.50;;
85763;SDS011;76207;39.772;2.706;2024-03-17T01:40:07;4.30;;;3.40;;
85763;SDS011;76207;39.772;2.706;2024-03-17T01:42:34;5.10;;;3.10;;
85763;SDS011;76207;39.772;2.706;2024-03-17T01:45:00;4.70;;;3.30;;
85763;SDS011;76207;39.772;2.706;2024-03-17T01:47:26;6.50;;;4.00;;
85763;SDS011;76207;39.772;2.706;2024-03-17T01:49:52;8.80;;;5.30;;
85763;SDS011;76207;39.772;2.706;2024-03-17T01:52:19;7.50;;;4.60;;
85763;SDS011;76207;39.772;2.706;2024-03-17T01:54:46;6.40;;;4.50;;
85763;SDS011;76207;39.772;2.706;2024-03-17T01:57:15;6.80;;;4.10;;
85763;SDS011;76207;39.772;2.706;2024-03-17T01:59:41;5.60;;;3.80;;
85763;SDS011;76207;39.772;2.706;2024-03-17T02:02:06;4.80;;;3.70;;
85763;SDS011;76207;39.772;2.706;2024-03-17T02:04:32;6.10;;;3.60;;
85763;SDS011;76207;39.772;2.706;2024-03-17T02:06:59;5.30;;;3.70;;
85763;SDS011;76207;39.772;2.706;2024-03-17T02:09:25;5.30;;;4.00;;
85763;SDS011;76207;39.772;2.706;2024-03-17T02:11:50;7.70;;;4.50;;
85763;SDS011;76207;39.772;2.706;2024-03-17T02:14:16;6.70;;;4.50;;
85763;SDS011;76207;39.772;2.706;2024-03-17T02:16:42;7.30;;;4.40;;
85763;SDS011;76207;39.772;2.706;2024-03-17T02:19:08;5.30;;;4.10;;
85763;SDS011;76207;39.772;2.706;2024-03-17T02:21:35;7.20;;;3.70;;
85763;SDS011;76207;39.772;2.706;2024-03-17T02:24:01;5.40;;;3.30;;
85763;SDS011;76207;39.772;2.706;2024-03-17T02:26:27;7.90;;;3.20;;
85763;SDS011;76207;39.772;2.706;2024-03-17T02:28:53;4.90;;;2.70;;
85763;SDS011;76207;39.772;2.706;2024-03-17T02:31:19;3.70;;;2.60;;
85763;SDS011;76207;39.772;2.706;2024-03-17T02:33:45;4.70;;;3.20;;
85763;SDS011;76207;39.772;2.706;2024-03-17T02:36:11;5.30;;;3.40;;
85763;SDS011;76207;39.772;2.706;2024-03-17T02:38:40;7.10;;;3.70;;
85763;SDS011;76207;39.772;2.706;2024-03-17T02:41:25;7.50;;;3.70;;
85763;SDS011;76207;39.772;2.706;2024-03-17T02:43:51;6.50;;;3.20;;
85763;SDS011;76207;39.772;2.706;2024-03-17T02:46:18;5.50;;;2.90;;
85763;SDS011;76207;39.772;2.706;2024-03-17T02:48:46;4.40;;;3.10;;
85763;SDS011;76207;39.772;2.706;2024-03-17T02:51:13;5.80;;;3.70;;
85763;SDS011;76207;39.772;2.706;2024-03-17T02:53:43;5.80;;;3.00;;
85763;SDS011;76207;39.772;2.706;2024-03-17T02:56:10;4.30;;;2.90;;
85763;SDS011;76207;39.772;2.706;2024-03-17T02:58:36;8.00;;;3.10;;
85763;SDS011;76207;39.772;2.706;2024-03-17T03:01:04;5.00;;;2.70;;
85763;SDS011;76207;39.772;2.706;2024-03-17T03:03:34;4.80;;;2.80;;
85763;SDS011;76207;39.772;2.706;2024-03-17T03:06:01;4.20;;;2.80;;
85763;SDS011;76207;39.772;2.706;2024-03-17T03:08:29;4.10;;;2.40;;
85763;SDS011;76207;39.772;2.706;2024-03-17T03:10:55;4.60;;;2.90;;
85763;SDS011;76207;39.772;2.706;2024-03-17T03:13:21;3.90;;;2.90;;
85763;SDS011;76207;39.772;2.706;2024-03-17T03:15:47;4.70;;;3.10;;
85763;SDS011;76207;39.772;2.706;2024-03-17T03:18:13;4.60;;;3.00;;
85763;SDS011;76207;39.772;2.706;2024-03-17T03:20:40;5.80;;;3.10;;
85763;SDS011;76207;39.772;2.706;2024-03-17T03:23:05;3.90;;;2.60;;
85763;SDS011;76207;39.772;2.706;2024-03-17T03:25:31;4.60;;;2.30;;
85763;SDS011;76207;39.772;2.706;2024-03-17T03:27:57;4.40;;;2.30;;
85763;SDS011;76207;39.772;2.706;2024-03-17T03:30:23;4.30;;;2.80;;
85763;SDS011;76207;39.772;2.706;2024-03-17T03:32:49;4.00;;;2.70;;
85763;SDS011;76207;39.772;2.706;2024-03-17T03:35:15;5.90;;;2.90;;
85763;SDS011;76207;39.772;2.706;2024-03-17T03:37:41;7.20;;;3.10;;
85763;SDS011;76207;39.772;2.706;2024-03-17T03:40:07;5.40;;;3.90;;
85763;SDS011;76207;39.772;2.706;2024-03-17T03:42:43;7.20;;;4.10;;
85763;SDS011;76207;39.772;2.706;2024-03-17T03:45:12;7.00;;;3.90;;
85763;SDS011;76207;39.772;2.706;2024-03-17T03:47:40;6.30;;;3.60;;
85763;SDS011;76207;39.772;2.706;2024-03-17T03:50:08;5.80;;;3.90;;
85763;SDS011;76207;39.772;2.706;2024-03-17T03:52:37;7.30;;;3.80;;
85763;SDS011;76207;39.772;2.706;2024-03-17T03:55:06;5.40;;;3.60;;
85763;SDS011;76207;39.772;2.706;2024-03-17T03:57:36;5.40;;;3.40;;
85763;SDS011;76207;39.772;2.706;2024-03-17T04:00:02;5.80;;;3.60;;
85763;SDS011;76207;39.772;2.706;2024-03-17T04:02:42;4.50;;;3.10;;
85763;SDS011;76207;39.772;2.706;2024-03-17T04:05:08;5.70;;;2.90;;
85763;SDS011;76207;39.772;2.706;2024-03-17T04:07:34;3.70;;;2.70;;
85763;SDS011;76207;39.772;2.706;2024-03-17T04:10:01;5.70;;;2.90;;
85763;SDS011;76207;39.772;2.706;2024-03-17T04:12:27;4.60;;;3.10;;
85763;SDS011;76207;39.772;2.706;2024-03-17T04:14:53;6.20;;;3.40;;
85763;SDS011;76207;39.772;2.706;2024-03-17T04:17:20;6.10;;;3.90;;
85763;SDS011;76207;39.772;2.706;2024-03-17T04:19:52;5.90;;;3.90;;
85763;SDS011;76207;39.772;2.706;2024-03-17T04:22:20;5.40;;;3.80;;
85763;SDS011;76207;39.772;2.706;2024-03-17T04:24:47;5.90;;;4.40;;
85763;SDS011;76207;39.772;2.706;2024-03-17T04:27:18;7.80;;;4.20;;
85763;SDS011;76207;39.772;2.706;2024-03-17T04:29:46;5.90;;;3.90;;
85763;SDS011;76207;39.772;2.706;2024-03-17T04:32:13;5.90;;;4.00;;
85763;SDS011;76207;39.772;2.706;2024-03-17T04:34:39;6.80;;;3.60;;
85763;SDS011;76207;39.772;2.706;2024-03-17T04:37:05;6.30;;;3.40;;
85763;SDS011;76207;39.772;2.706;2024-03-17T04:39:30;8.00;;;3.80;;
85763;SDS011;76207;39.772;2.706;2024-03-17T04:41:56;6.00;;;4.30;;
85763;SDS011;76207;39.772;2.706;2024-03-17T04:44:22;4.60;;;3.10;;
85763;SDS011;76207;39.772;2.706;2024-03-17T04:46:48;4.60;;;2.70;;
85763;SDS011;76207;39.772;2.706;2024-03-17T04:49:14;4.70;;;2.70;;
85763;SDS011;76207;39.772;2.706;2024-03-17T04:51:39;5.30;;;2.80;;
85763;SDS011;76207;39.772;2.706;2024-03-17T04:54:05;6.60;;;2.60;;
85763;SDS011;76207;39.772;2.706;2024-03-17T04:56:32;4.10;;;3.00;;
85763;SDS011;76207;39.772;2.706;2024-03-17T04:58:58;5.40;;;3.00;;
85763;SDS011;76207;39.772;2.706;2024-03-17T05:01:23;5.80;;;3.10;;
85763;SDS011;76207;39.772;2.706;2024-03-17T05:03:52;4.60;;;2.80;;
85763;SDS011;76207;39.772;2.706;2024-03-17T05:06:18;4.80;;;3.20;;
85763;SDS011;76207;39.772;2.706;2024-03-17T05:08:44;6.30;;;3.30;;
85763;SDS011;76207;39.772;2.706;2024-03-17T05:11:09;4.50;;;3.50;;
85763;SDS011;76207;39.772;2.706;2024-03-17T05:13:36;5.00;;;3.10;;
85763;SDS011;76207;39.772;2.706;2024-03-17T05:16:05;6.50;;;3.50;;
85763;SDS011;76207;39.772;2.706;2024-03-17T05:18:31;5.00;;;3.30;;
85763;SDS011;76207;39.772;2.706;2024-03-17T05:21:01;10.00;;;4.40;;
85763;SDS011;76207;39.772;2.706;2024-03-17T05:23:32;5.90;;;3.80;;
85763;SDS011;76207;39.772;2.706;2024-03-17T05:25:59;11.50;;;5.00;;
85763;SDS011;76207;39.772;2.706;2024-03-17T05:28:26;8.50;;;4.40;;
85763;SDS011;76207;39.772;2.706;2024-03-17T05:30:54;6.70;;;4.00;;
85763;SDS011;76207;39.772;2.706;2024-03-17T05:33:20;8.60;;;4.60;;
85763;SDS011;76207;39.772;2.706;2024-03-17T05:38:29;7.20;;;3.60;;
85763;SDS011;76207;39.772;2.706;2024-03-17T05:41:02;4.60;;;3.00;;
85763;SDS011;76207;39.772;2.706;2024-03-17T05:43:30;5.40;;;2.70;;
85763;SDS011;76207;39.772;2.706;2024-03-17T05:46:04;3.70;;;2.50;;
85763;SDS011;76207;39.772;2.706;2024-03-17T05:48:34;3.90;;;2.50;;
85763;SDS011;76207;39.772;2.706;2024-03-17T05:51:03;4.60;;;2.90;;
85763;SDS011;76207;39.772;2.706;2024-03-17T05:53:29;5.00;;;3.00;;
85763;SDS011;76207;39.772;2.706;2024-03-17T05:56:00;3.90;;;3.10;;
85763;SDS011;76207;39.772;2.706;2024-03-17T05:58:26;4.80;;;3.20;;
85763;SDS011;76207;39.772;2.706;2024-03-17T06:00:52;3.90;;;2.90;;
85763;SDS011;76207;39.772;2.706;2024-03-17T06:03:18;3.50;;;2.90;;
85763;SDS011;76207;39.772;2.706;2024-03-17T06:05:44;6.30;;;3.20;;
85763;SDS011;76207;39.772;2.706;2024-03-17T06:08:11;5.00;;;3.00;;
85763;SDS011;76207;39.772;2.706;2024-03-17T06:10:37;3.10;;;2.50;;
85763;SDS011;76207;39.772;2.706;2024-03-17T06:13:07;5.40;;;2.60;;
85763;SDS011;76207;39.772;2.706;2024-03-17T06:15:37;5.00;;;2.60;;
85763;SDS011;76207;39.772;2.706;2024-03-17T06:18:03;3.90;;;2.50;;
85763;SDS011;76207;39.772;2.706;2024-03-17T06:20:29;4.80;;;3.20;;
85763;SDS011;76207;39.772;2.706;2024-03-17T06:22:55;4.40;;;3.20;;
85763;SDS011;76207;39.772;2.706;2024-03-17T06:25:22;4.30;;;3.30;;
85763;SDS011;76207;39.772;2.706;2024-03-17T06:27:50;6.70;;;3.40;;
85763;SDS011;76207;39.772;2.706;2024-03-17T06:30:17;7.80;;;4.20;;
85763;SDS011;76207;39.772;2.706;2024-03-17T06:32:43;5.40;;;3.10;;
85763;SDS011;76207;39.772;2.706;2024-03-17T06:35:10;8.50;;;5.30;;
85763;SDS011;76207;39.772;2.706;2024-03-17T06:37:36;7.80;;;5.50;;
85763;SDS011;76207;39.772;2.706;2024-03-17T06:40:03;6.20;;;4.90;;
85763;SDS011;76207;39.772;2.706;2024-03-17T06:42:30;5.60;;;3.80;;
85763;SDS011;76207;39.772;2.706;2024-03-17T06:44:56;4.40;;;3.40;;
85763;SDS011;76207;39.772;2.706;2024-03-17T06:47:23;4.50;;;3.60;;
85763;SDS011;76207;39.772;2.706;2024-03-17T06:49:48;5.90;;;3.70;;
85763;SDS011;76207;39.772;2.706;2024-03-17T06:52:14;4.50;;;3.50;;
85763;SDS011;76207;39.772;2.706;2024-03-17T06:54:39;6.10;;;4.00;;
85763;SDS011;76207;39.772;2.706;2024-03-17T06:57:05;6.40;;;4.20;;
85763;SDS011;76207;39.772;2.706;2024-03-17T06:59:34;7.60;;;5.30;;
85763;SDS011;76207;39.772;2.706;2024-03-17T07:01:59;9.10;;;6.10;;
85763;SDS011;76207;39.772;2.706;2024-03-17T07:04:26;6.90;;;5.50;;
85763;SDS011;76207;39.772;2.706;2024-03-17T07:06:51;6.70;;;5.20;;
85763;SDS011;76207;39.772;2.706;2024-03-17T07:09:17;7.20;;;4.90;;
85763;SDS011;76207;39.772;2.706;2024-03-17T07:11:42;6.40;;;4.70;;
85763;SDS011;76207;39.772;2.706;2024-03-17T07:14:09;19.00;;;11.90;;
85763;SDS011;76207;39.772;2.706;2024-03-17T07:16:34;25.60;;;13.00;;
85763;SDS011;76207;39.772;2.706;2024-03-17T07:19:01;40.50;;;19.90;;
85763;SDS011;76207;39.772;2.706;2024-03-17T07:21:27;37.90;;;19.50;;
85763;SDS011;76207;39.772;2.706;2024-03-17T07:23:53;34.80;;;20.60;;
85763;SDS011;76207;39.772;2.706;2024-03-17T07:26:18;43.10;;;25.10;;
85763;SDS011;76207;39.772;2.706;2024-03-17T07:28:44;30.10;;;18.80;;
85763;SDS011;76207;39.772;2.706;2024-03-17T07:31:10;29.30;;;17.60;;
85763;SDS011;76207;39.772;2.706;2024-03-17T07:33:36;26.60;;;15.60;;
85763;SDS011;76207;39.772;2.706;2024-03-17T07:36:02;18.90;;;11.60;;
85763;SDS011;76207;39.772;2.706;2024-03-17T07:38:30;23.90;;;14.00;;
85763;SDS011;76207;39.772;2.706;2024-03-17T07:41:05;22.80;;;14.20;;
85763;SDS011;76207;39.772;2.706;2024-03-17T07:43:33;21.70;;;14.30;;
85763;SDS011;76207;39.772;2.706;2024-03-17T07:46:00;27.90;;;16.60;;
85763;SDS011;76207;39.772;2.706;2024-03-17T07:48:30;34.70;;;19.40;;
85763;SDS011;76207;39.772;2.706;2024-03-17T07:50:58;33.00;;;19.10;;
85763;SDS011;76207;39.772;2.706;2024-03-17T07:53:34;29.60;;;19.20;;
85763;SDS011;76207;39.772;2.706;2024-03-17T07:56:02;30.60;;;19.10;;
85763;SDS011;76207;39.772;2.706;2024-03-17T07:58:30;26.50;;;16.90;;
85763;SDS011;76207;39.772;2.706;2024-03-17T08:01:05;25.90;;;15.80;;
85763;SDS011;76207;39.772;2.706;2024-03-17T08:03:35;24.70;;;14.50;;
85763;SDS011;76207;39.772;2.706;2024-03-17T08:06:02;17.90;;;10.80;;
85763;SDS011;76207;39.772;2.706;2024-03-17T08:08:29;16.50;;;11.00;;
85763;SDS011;76207;39.772;2.706;2024-03-17T08:10:56;14.40;;;8.90;;
85763;SDS011;76207;39.772;2.706;2024-03-17T08:13:22;14.30;;;10.20;;
85763;SDS011;76207;39.772;2.706;2024-03-17T08:18:43;13.00;;;9.60;;
85763;SDS011;76207;39.772;2.706;2024-03-17T08:21:09;14.80;;;9.80;;
85763;SDS011;76207;39.772;2.706;2024-03-17T08:23:35;16.20;;;10.80;;
85763;SDS011;76207;39.772;2.706;2024-03-17T08:26:06;15.60;;;10.20;;
85763;SDS011;76207;39.772;2.706;2024-03-17T08:28:33;14.90;;;8.10;;
85763;SDS011;76207;39.772;2.706;2024-03-17T08:30:59;15.30;;;7.80;;
85763;SDS011;76207;39.772;2.706;2024-03-17T08:33:26;12.80;;;7.60;;
85763;SDS011;76207;39.772;2.706;2024-03-17T08:35:53;9.80;;;7.40;;
85763;SDS011;76207;39.772;2.706;2024-03-17T08:38:22;11.80;;;8.20;;
85763;SDS011;76207;39.772;2.706;2024-03-17T08:40:49;13.40;;;8.60;;
85763;SDS011;76207;39.772;2.706;2024-03-17T08:43:20;11.10;;;8.50;;
85763;SDS011;76207;39.772;2.706;2024-03-17T08:46:00;16.00;;;9.20;;
85763;SDS011;76207;39.772;2.706;2024-03-17T08:48:31;15.40;;;9.90;;
85763;SDS011;76207;39.772;2.706;2024-03-17T08:50:58;13.20;;;9.40;;
85763;SDS011;76207;39.772;2.706;2024-03-17T08:53:25;17.00;;;10.70;;
85763;SDS011;76207;39.772;2.706;2024-03-17T08:55:52;8.30;;;5.60;;
85763;SDS011;76207;39.772;2.706;2024-03-17T08:58:18;5.10;;;3.70;;
85763;SDS011;76207;39.772;2.706;2024-03-17T09:00:44;5.80;;;3.50;;
85763;SDS011;76207;39.772;2.706;2024-03-17T09:03:10;6.90;;;3.50;;
85763;SDS011;76207;39.772;2.706;2024-03-17T09:05:40;5.90;;;3.00;;
85763;SDS011;76207;39.772;2.706;2024-03-17T09:08:07;3.70;;;2.40;;
85763;SDS011;76207;39.772;2.706;2024-03-17T09:10:38;5.50;;;3.40;;
85763;SDS011;76207;39.772;2.706;2024-03-17T09:13:15;5.90;;;3.40;;
85763;SDS011;76207;39.772;2.706;2024-03-17T09:15:51;5.00;;;3.30;;
85763;SDS011;76207;39.772;2.706;2024-03-17T09:18:30;7.40;;;3.60;;
85763;SDS011;76207;39.772;2.706;2024-03-17T09:20:58;4.90;;;3.40;;
85763;SDS011;76207;39.772;2.706;2024-03-17T09:23:25;6.90;;;3.30;;
85763;SDS011;76207;39.772;2.706;2024-03-17T09:28:26;5.40;;;3.90;;
85763;SDS011;76207;39.772;2.706;2024-03-17T09:30:53;5.40;;;3.80;;
85763;SDS011;76207;39.772;2.706;2024-03-17T09:33:20;5.20;;;3.50;;
85763;SDS011;76207;39.772;2.706;2024-03-17T09:35:57;4.50;;;3.20;;
85763;SDS011;76207;39.772;2.706;2024-03-17T09:38:30;4.80;;;3.10;;
85763;SDS011;76207;39.772;2.706;2024-03-17T09:40:55;5.50;;;3.40;;
85763;SDS011;76207;39.772;2.706;2024-03-17T09:43:29;5.00;;;3.50;;
85763;SDS011;76207;39.772;2.706;2024-03-17T09:45:58;4.70;;;3.00;;
85763;SDS011;76207;39.772;2.706;2024-03-17T09:48:27;5.00;;;3.10;;
85763;SDS011;76207;39.772;2.706;2024-03-17T09:50:57;4.90;;;3.00;;
85763;SDS011;76207;39.772;2.706;2024-03-17T09:53:25;6.30;;;3.10;;
85763;SDS011;76207;39.772;2.706;2024-03-17T09:55:53;5.40;;;3.30;;
85763;SDS011;76207;39.772;2.706;2024-03-17T09:58:23;4.80;;;3.20;;
85763;SDS011;76207;39.772;2.706;2024-03-17T10:00:52;3.60;;;2.80;;
85763;SDS011;76207;39.772;2.706;2024-03-17T10:04:03;3.60;;;2.70;;
85763;SDS011;76207;39.772;2.706;2024-03-17T10:06:13;4.90;;;2.90;;
85763;SDS011;76207;39.772;2.706;2024-03-17T10:11:40;4.40;;;2.80;;
85763;SDS011;76207;39.772;2.706;2024-03-17T10:14:07;5.40;;;2.90;;
85763;SDS011;76207;39.772;2.706;2024-03-17T10:16:34;4.60;;;2.70;;
85763;SDS011;76207;39.772;2.706;2024-03-17T10:21:51;4.90;;;3.20;;
85763;SDS011;76207;39.772;2.706;2024-03-17T10:24:25;5.30;;;2.80;;
85763;SDS011;76207;39.772;2.706;2024-03-17T10:26:57;4.40;;;3.00;;
85763;SDS011;76207;39.772;2.706;2024-03-17T10:29:25;5.30;;;3.10;;
85763;SDS011;76207;39.772;2.706;2024-03-17T10:31:53;6.00;;;3.00;;
85763;SDS011;76207;39.772;2.706;2024-03-17T10:34:22;4.10;;;2.90;;
85763;SDS011;76207;39.772;2.706;2024-03-17T10:39:38;3.60;;;2.70;;
85763;SDS011;76207;39.772;2.706;2024-03-17T10:42:06;4.30;;;2.80;;
85763;SDS011;76207;39.772;2.706;2024-03-17T10:44:36;4.40;;;2.70;;
85763;SDS011;76207;39.772;2.706;2024-03-17T10:47:03;5.90;;;3.00;;
85763;SDS011;76207;39.772;2.706;2024-03-17T10:49:37;9.30;;;6.50;;
85763;SDS011;76207;39.772;2.706;2024-03-17T10:54:46;11.80;;;3.70;;
85763;SDS011;76207;39.772;2.706;2024-03-17T11:00:02;5.50;;;3.00;;
85763;SDS011;76207;39.772;2.706;2024-03-17T11:02:31;4.30;;;2.50;;
85763;SDS011;76207;39.772;2.706;2024-03-17T11:05:02;4.20;;;3.10;;
85763;SDS011;76207;39.772;2.706;2024-03-17T11:07:32;5.10;;;3.60;;
85763;SDS011;76207;39.772;2.706;2024-03-17T11:10:04;4.70;;;3.40;;
85763;SDS011;76207;39.772;2.706;2024-03-17T11:12:49;5.80;;;3.90;;
85763;SDS011;76207;39.772;2.706;2024-03-17T11:17:47;7.00;;;3.40;;
85763;SDS011;76207;39.772;2.706;2024-03-17T11:20:26;4.90;;;3.60;;
85763;SDS011;76207;39.772;2.706;2024-03-17T11:22:56;6.40;;;4.50;;
85763;SDS011;76207;39.772;2.706;2024-03-17T11:27:52;7.70;;;6.00;;
85763;SDS011;76207;39.772;2.706;2024-03-17T11:41:40;4.00;;;3.20;;
85763;SDS011;76207;39.772;2.706;2024-03-17T11:46:58;5.00;;;2.90;;
85763;SDS011;76207;39.772;2.706;2024-03-17T11:52:03;5.80;;;3.60;;
85763;SDS011;76207;39.772;2.706;2024-03-17T11:54:33;5.10;;;2.90;;
85763;SDS011;76207;39.772;2.706;2024-03-17T11:57:07;6.20;;;2.90;;
85763;SDS011;76207;39.772;2.706;2024-03-17T11:59:35;5.60;;;3.10;;
85763;SDS011;76207;39.772;2.706;2024-03-17T12:02:02;4.90;;;3.10;;
85763;SDS011;76207;39.772;2.706;2024-03-17T12:04:41;4.80;;;2.80;;
85763;SDS011;76207;39.772;2.706;2024-03-17T12:07:11;6.20;;;3.20;;
85763;SDS011;76207;39.772;2.706;2024-03-17T12:09:41;6.70;;;3.90;;
85763;SDS011;76207;39.772;2.706;2024-03-17T12:12:08;7.00;;;3.20;;
85763;SDS011;76207;39.772;2.706;2024-03-17T12:14:36;4.60;;;2.90;;
85763;SDS011;76207;39.772;2.706;2024-03-17T12:17:03;7.40;;;3.00;;
85763;SDS011;76207;39.772;2.706;2024-03-17T12:19:31;4.10;;;2.60;;
85763;SDS011;76207;39.772;2.706;2024-03-17T12:21:58;4.80;;;2.70;;
85763;SDS011;76207;39.772;2.706;2024-03-17T12:24:34;6.40;;;2.70;;
85763;SDS011;76207;39.772;2.706;2024-03-17T12:29:30;8.80;;;3.10;;
85763;SDS011;76207;39.772;2.706;2024-03-17T12:31:58;4.70;;;2.60;;
85763;SDS011;76207;39.772;2.706;2024-03-17T12:34:27;6.00;;;2.90;;
85763;SDS011;76207;39.772;2.706;2024-03-17T12:36:54;5.20;;;2.60;;
85763;SDS011;76207;39.772;2.706;2024-03-17T12:39:27;4.30;;;2.60;;
85763;SDS011;76207;39.772;2.706;2024-03-17T12:42:10;4.30;;;2.50;;
85763;SDS011;76207;39.772;2.706;2024-03-17T12:44:47;4.70;;;2.90;;
85763;SDS011;76207;39.772;2.706;2024-03-17T12:49:46;2.90;;;2.40;;
85763;SDS011;76207;39.772;2.706;2024-03-17T12:52:32;4.70;;;2.70;;
85763;SDS011;76207;39.772;2.706;2024-03-17T12:57:49;3.90;;;2.90;;
85763;SDS011;76207;39.772;2.706;2024-03-17T13:00:35;4.70;;;2.70;;
85763;SDS011;76207;39.772;2.706;2024-03-17T13:03:01;3.70;;;2.70;;
85763;SDS011;76207;39.772;2.706;2024-03-17T13:05:29;4.70;;;2.70;;
85763;SDS011;76207;39.772;2.706;2024-03-17T13:07:56;5.20;;;3.00;;
85763;SDS011;76207;39.772;2.706;2024-03-17T13:10:23;4.60;;;2.80;;
85763;SDS011;76207;39.772;2.706;2024-03-17T13:13:07;4.60;;;3.00;;
85763;SDS011;76207;39.772;2.706;2024-03-17T13:15:34;4.20;;;3.00;;
85763;SDS011;76207;39.772;2.706;2024-03-17T13:18:06;6.60;;;3.50;;
85763;SDS011;76207;39.772;2.706;2024-03-17T13:20:32;4.20;;;3.10;;
85763;SDS011;76207;39.772;2.706;2024-03-17T13:22:59;4.30;;;3.20;;
85763;SDS011;76207;39.772;2.706;2024-03-17T13:25:26;4.60;;;2.70;;
85763;SDS011;76207;39.772;2.706;2024-03-17T13:27:59;4.00;;;2.80;;
85763;SDS011;76207;39.772;2.706;2024-03-17T13:30:24;5.70;;;3.00;;
85763;SDS011;76207;39.772;2.706;2024-03-17T13:32:52;4.60;;;3.30;;
85763;SDS011;76207;39.772;2.706;2024-03-17T13:35:23;4.90;;;2.80;;
85763;SDS011;76207;39.772;2.706;2024-03-17T13:37:51;6.10;;;3.30;;
85763;SDS011;76207;39.772;2.706;2024-03-17T13:40:19;4.70;;;3.00;;
85763;SDS011;76207;39.772;2.706;2024-03-17T13:42:45;5.90;;;3.20;;
85763;SDS011;76207;39.772;2.706;2024-03-17T13:45:14;5.30;;;3.00;;
85763;SDS011;76207;39.772;2.706;2024-03-17T13:47:41;3.60;;;2.70;;
85763;SDS011;76207;39.772;2.706;2024-03-17T13:50:14;6.60;;;3.20;;
85763;SDS011;76207;39.772;2.706;2024-03-17T13:52:40;5.10;;;3.00;;
85763;SDS011;76207;39.772;2.706;2024-03-17T13:55:06;5.90;;;3.30;;
85763;SDS011;76207;39.772;2.706;2024-03-17T13:57:39;3.90;;;3.00;;
85763;SDS011;76207;39.772;2.706;2024-03-17T14:00:05;3.90;;;2.60;;
85763;SDS011;76207;39.772;2.706;2024-03-17T14:02:35;5.60;;;2.70;;
85763;SDS011;76207;39.772;2.706;2024-03-17T14:05:01;4.50;;;2.90;;
85763;SDS011;76207;39.772;2.706;2024-03-17T14:07:27;3.90;;;2.70;;
85763;SDS011;76207;39.772;2.706;2024-03-17T14:09:53;4.80;;;3.00;;
85763;SDS011;76207;39.772;2.706;2024-03-17T14:12:18;5.90;;;3.20;;
85763;SDS011;76207;39.772;2.706;2024-03-17T14:14:44;4.30;;;2.90;;
85763;SDS011;76207;39.772;2.706;2024-03-17T14:17:09;4.30;;;2.90;;
85763;SDS011;76207;39.772;2.706;2024-03-17T14:19:35;4.60;;;2.60;;
85763;SDS011;76207;39.772;2.706;2024-03-17T14:22:00;4.30;;;3.20;;
85763;SDS011;76207;39.772;2.706;2024-03-17T14:24:26;4.90;;;3.10;;
85763;SDS011;76207;39.772;2.706;2024-03-17T14:29:23;5.20;;;2.80;;
85763;SDS011;76207;39.772;2.706;2024-03-17T14:31:50;6.60;;;2.90;;
85763;SDS011;76207;39.772;2.706;2024-03-17T14:34:15;4.40;;;2.80;;
85763;SDS011;76207;39.772;2.706;2024-03-17T14:36:42;4.70;;;3.40;;
85763;SDS011;76207;39.772;2.706;2024-03-17T14:39:07;4.50;;;3.40;;
85763;SDS011;76207;39.772;2.706;2024-03-17T14:41:33;4.00;;;3.10;;
85763;SDS011;76207;39.772;2.706;2024-03-17T14:43:59;6.20;;;3.10;;
85763;SDS011;76207;39.772;2.706;2024-03-17T14:46:25;3.70;;;2.40;;
85763;SDS011;76207;39.772;2.706;2024-03-17T14:48:52;3.90;;;2.70;;
85763;SDS011;76207;39.772;2.706;2024-03-17T14:51:18;4.00;;;3.10;;
85763;SDS011;76207;39.772;2.706;2024-03-17T14:53:46;4.70;;;2.90;;
85763;SDS011;76207;39.772;2.706;2024-03-17T14:56:14;5.20;;;3.10;;
85763;SDS011;76207;39.772;2.706;2024-03-17T14:58:41;5.20;;;3.10;;
85763;SDS011;76207;39.772;2.706;2024-03-17T15:01:07;3.70;;;2.50;;
85763;SDS011;76207;39.772;2.706;2024-03-17T15:03:34;5.00;;;3.50;;
85763;SDS011;76207;39.772;2.706;2024-03-17T15:06:00;3.80;;;2.80;;
85763;SDS011;76207;39.772;2.706;2024-03-17T15:08:29;4.60;;;2.60;;
85763;SDS011;76207;39.772;2.706;2024-03-17T15:10:55;3.50;;;2.70;;
85763;SDS011;76207;39.772;2.706;2024-03-17T15:13:21;4.10;;;3.60;;
85763;SDS011;76207;39.772;2.706;2024-03-17T15:15:48;3.70;;;2.70;;
85763;SDS011;76207;39.772;2.706;2024-03-17T15:18:16;4.10;;;3.20;;
85763;SDS011;76207;39.772;2.706;2024-03-17T15:20:42;4.30;;;2.80;;
85763;SDS011;76207;39.772;2.706;2024-03-17T15:23:07;4.50;;;3.00;;
85763;SDS011;76207;39.772;2.706;2024-03-17T15:25:33;4.70;;;3.00;;
85763;SDS011;76207;39.772;2.706;2024-03-17T15:27:59;4.00;;;2.70;;
85763;SDS011;76207;39.772;2.706;2024-03-17T15:30:27;3.70;;;2.80;;
85763;SDS011;76207;39.772;2.706;2024-03-17T15:32:54;4.60;;;3.20;;
85763;SDS011;76207;39.772;2.706;2024-03-17T15:35:20;6.10;;;3.50;;
85763;SDS011;76207;39.772;2.706;2024-03-17T15:37:46;4.50;;;3.40;;
85763;SDS011;76207;39.772;2.706;2024-03-17T15:40:17;5.10;;;3.10;;
85763;SDS011;76207;39.772;2.706;2024-03-17T15:42:45;4.70;;;3.00;;
85763;SDS011;76207;39.772;2.706;2024-03-17T15:45:14;4.20;;;2.80;;